Time;durP1;ratioP1;P1;durP2;ratioP2;P2;SDS_P1;SDS_P2;PMS_P1;PMS_P2;Temp;Humidity;BMP_temperature;BMP_pressure;BME280_temperature;BME280_humidity;BME280_pressure;Samples;Min_cycle;Max_cycle;Signal;HPM_P1;HPM_P2
2023/11/26 00:01:17;;;;;;;1999.90;999.90;;;5.20;99.90;;;;;;5012405;28;20543;-69
2023/11/26 00:03:42;;;;;;;1999.90;999.90;;;5.10;99.90;;;;;;5012344;28;20463;-69
2023/11/26 00:06:09;;;;;;;1999.90;999.90;;;5.20;99.90;;;;;;5012157;28;20439;-69
2023/11/26 00:08:35;;;;;;;1999.90;999.90;;;5.20;99.90;;;;;;5012216;28;20173;-68
2023/11/26 00:11:01;;;;;;;1999.90;999.90;;;5.10;98.40;;;;;;5012327;28;20443;-69
2023/11/26 00:13:27;;;;;;;1999.90;999.90;;;5.10;95.90;;;;;;5012197;28;21086;-69
2023/11/26 00:15:53;;;;;;;1999.90;999.90;;;5.10;99.90;;;;;;5011574;28;20170;-69
2023/11/26 00:18:18;;;;;;;1999.90;999.90;;;5.10;93.60;;;;;;5012285;28;20411;-68
2023/11/26 00:20:44;;;;;;;1999.90;999.90;;;5.10;99.90;;;;;;5012116;28;20683;-68
2023/11/26 00:23:10;;;;;;;1999.90;999.90;;;5.10;89.90;;;;;;5012225;28;20227;-69
2023/11/26 00:25:35;;;;;;;1999.90;999.90;;;5.10;94.20;;;;;;5012005;28;20173;-69
2023/11/26 00:28:01;;;;;;;1999.90;999.90;;;5.20;79.90;;;;;;5012112;28;20173;-69
2023/11/26 00:30:26;;;;;;;1999.90;999.90;;;5.20;94.00;;;;;;5012067;28;20181;-69
2023/11/26 00:32:52;;;;;;;1999.90;999.90;;;5.10;90.30;;;;;;5011783;28;20211;-69
2023/11/26 00:35:17;;;;;;;1999.90;999.90;;;5.20;97.40;;;;;;5011811;28;20177;-68
2023/11/26 00:37:43;;;;;;;1999.90;999.90;;;5.20;98.00;;;;;;5012029;28;20161;-69
2023/11/26 00:40:12;;;;;;;1999.90;999.90;;;5.20;91.70;;;;;;5012032;28;20656;-69
2023/11/26 00:42:37;;;;;;;1999.90;999.90;;;5.20;96.10;;;;;;5011873;28;20204;-68
2023/11/26 00:45:04;;;;;;;1999.90;999.90;;;5.10;94.40;;;;;;5012019;28;20400;-69
2023/11/26 00:47:30;;;;;;;1999.90;999.90;;;5.10;92.40;;;;;;5011974;28;20579;-69
2023/11/26 00:49:58;;;;;;;1999.90;999.90;;;5.10;76.60;;;;;;5011871;28;20416;-69
2023/11/26 00:52:24;;;;;;;1999.90;999.90;;;5.10;92.60;;;;;;5011752;28;20735;-69
2023/11/26 00:54:49;;;;;;;1999.90;999.90;;;5.20;95.80;;;;;;5011922;28;20423;-69
2023/11/26 00:57:15;;;;;;;1999.90;999.90;;;5.20;79.70;;;;;;5011687;28;20172;-68
2023/11/26 00:59:40;;;;;;;1999.90;999.90;;;5.20;95.20;;;;;;5011858;28;20312;-69
2023/11/26 01:02:07;;;;;;;1999.90;999.90;;;5.20;92.10;;;;;;5011877;28;20279;-69
2023/11/26 01:04:33;;;;;;;1999.90;999.90;;;5.10;83.20;;;;;;5011791;28;20169;-69
2023/11/26 01:06:58;;;;;;;1999.90;999.90;;;5.20;96.00;;;;;;5011896;28;20491;-69
2023/11/26 01:09:24;;;;;;;1999.90;999.90;;;5.30;98.50;;;;;;5011852;28;20165;-69
2023/11/26 01:11:50;;;;;;;1999.90;999.90;;;5.30;56.10;;;;;;5011400;28;20975;-69
2023/11/26 01:14:16;;;;;;;1999.90;999.90;;;5.30;50.30;;;;;;5011750;28;20403;-69
2023/11/26 01:16:41;;;;;;;1999.90;999.90;;;5.30;51.60;;;;;;5011699;28;20243;-69
2023/11/26 01:19:07;;;;;;;1999.90;999.90;;;5.20;33.30;;;;;;5011694;28;20165;-69
2023/11/26 01:21:32;;;;;;;1999.90;999.90;;;5.10;31.70;;;;;;5011550;28;20233;-69
2023/11/26 01:23:58;;;;;;;1999.90;999.90;;;5.20;37.30;;;;;;5011675;28;20188;-69
2023/11/26 01:26:23;;;;;;;1999.90;999.90;;;5.10;23.70;;;;;;5013018;28;20172;-70
2023/11/26 01:28:49;;;;;;;1999.90;999.90;;;5.10;3.40;;;;;;5015319;28;20169;-69
2023/11/26 01:31:15;;;;;;;1999.90;999.90;;;5.00;10.90;;;;;;5015121;28;20189;-69
2023/11/26 01:33:40;;;;;;;1999.90;999.90;;;4.90;11.50;;;;;;5015058;28;20205;-69
2023/11/26 01:36:08;;;;;;;1999.90;999.90;;;4.80;1.00;;;;;;5014840;28;20169;-69
2023/11/26 01:38:34;;;;;;;1999.90;999.90;;;4.70;6.70;;;;;;5015311;28;20553;-69
2023/11/26 01:40:59;;;;;;;1999.90;999.90;;;4.60;13.00;;;;;;5014928;28;20412;-69
2023/11/26 01:43:25;;;;;;;1999.90;999.90;;;4.50;27.00;;;;;;5015028;28;20591;-69
2023/11/26 01:46:00;;;;;;;1999.90;999.90;;;4.40;46.00;;;;;;5014952;28;20235;-69
2023/11/26 01:48:25;;;;;;;1999.90;999.90;;;4.30;37.90;;;;;;5014921;28;20415;-69
2023/11/26 01:50:51;;;;;;;1999.90;999.90;;;4.40;99.90;;;;;;5014755;28;20400;-69
2023/11/26 01:53:17;;;;;;;1999.90;999.90;;;4.20;43.90;;;;;;5014743;28;20297;-69
2023/11/26 01:55:42;;;;;;;1999.90;999.90;;;4.20;50.10;;;;;;5014503;28;20177;-69
2023/11/26 01:58:08;;;;;;;1999.90;999.90;;;4.20;91.80;;;;;;5014793;28;20528;-69
2023/11/26 02:00:34;;;;;;;1999.90;999.90;;;4.00;89.50;;;;;;5014609;28;20601;-69
2023/11/26 02:03:00;;;;;;;1999.90;999.90;;;4.10;36.40;;;;;;5013338;28;20439;-69
2023/11/26 02:05:25;;;;;;;1999.90;999.90;;;4.20;48.00;;;;;;5014442;28;20435;-69
2023/11/26 02:07:52;;;;;;;1999.90;999.90;;;4.30;56.60;;;;;;5014596;28;20652;-69
2023/11/26 02:10:18;;;;;;;1999.90;999.90;;;4.30;90.50;;;;;;5014442;28;20209;-69
2023/11/26 02:13:04;;;;;;;1999.90;999.90;;;4.40;99.90;;;;;;5014232;28;20499;-69
2023/11/26 02:15:30;;;;;;;1999.90;999.90;;;4.40;99.90;;;;;;5014581;28;20667;-69
2023/11/26 02:17:56;;;;;;;1999.90;999.90;;;4.30;99.90;;;;;;5014400;28;20850;-69
2023/11/26 02:20:22;;;;;;;1999.90;999.90;;;4.30;99.90;;;;;;5014257;28;20443;-69
2023/11/26 02:22:48;;;;;;;1999.90;999.90;;;4.30;99.90;;;;;;5014115;28;20196;-69
2023/11/26 02:25:14;;;;;;;1999.90;999.90;;;4.30;99.90;;;;;;5014220;28;20420;-69
2023/11/26 02:27:39;;;;;;;1999.90;999.90;;;4.40;99.90;;;;;;5014258;28;20403;-69
2023/11/26 02:30:06;;;;;;;1999.90;999.90;;;4.30;99.90;;;;;;5014264;28;20212;-69
2023/11/26 02:32:31;;;;;;;1999.90;999.90;;;4.30;99.90;;;;;;5013835;28;20204;-69
2023/11/26 02:34:57;;;;;;;1999.90;999.90;;;4.30;99.90;;;;;;5014132;28;20404;-69
2023/11/26 02:37:23;;;;;;;1999.90;999.90;;;4.30;99.90;;;;;;5013218;28;20400;-69
2023/11/26 02:39:48;;;;;;;1999.90;999.90;;;4.40;99.90;;;;;;5013944;28;20992;-69
2023/11/26 02:42:14;;;;;;;1999.90;999.90;;;4.30;99.90;;;;;;5013761;28;20189;-68
2023/11/26 02:44:39;;;;;;;1999.90;999.90;;;4.30;99.90;;;;;;5013920;28;20248;-69
2023/11/26 02:47:07;;;;;;;1999.90;999.90;;;4.30;99.90;;;;;;5013567;28;20173;-69
2023/11/26 02:49:33;;;;;;;1999.90;999.90;;;4.30;99.90;;;;;;5013797;28;20259;-69
2023/11/26 02:51:59;;;;;;;1999.90;999.90;;;4.20;99.90;;;;;;5013486;28;20514;-69
2023/11/26 02:54:24;;;;;;;1999.90;999.90;;;4.20;99.90;;;;;;5013661;28;20818;-69
2023/11/26 02:56:50;;;;;;;1999.90;999.90;;;4.20;99.90;;;;;;5013576;28;20257;-69
2023/11/26 02:59:16;;;;;;;1999.90;999.90;;;4.30;99.90;;;;;;5013796;28;20177;-69
2023/11/26 03:01:42;;;;;;;1999.90;999.90;;;4.30;99.90;;;;;;5013500;28;20882;-69
2023/11/26 03:04:08;;;;;;;1999.90;999.90;;;4.20;99.90;;;;;;5013567;28;20180;-69
2023/11/26 03:06:35;;;;;;;1999.90;999.90;;;4.10;99.90;;;;;;5013212;28;20436;-69
2023/11/26 03:09:09;;;;;;;1999.90;999.90;;;4.20;99.90;;;;;;5013640;28;20495;-69
2023/11/26 03:14:19;;;;;;;1999.90;999.90;;;4.20;99.90;;;;;;5013391;28;20787;-69
2023/11/26 03:16:45;;;;;;;1999.90;999.90;;;4.20;99.90;;;;;;5013004;28;20404;-69
2023/11/26 03:19:14;;;;;;;1999.90;999.90;;;4.20;99.90;;;;;;5013204;28;20194;-69
2023/11/26 03:21:48;;;;;;;1999.90;999.90;;;4.20;99.90;;;;;;5013270;28;20424;-69
2023/11/26 03:24:16;;;;;;;1999.90;999.90;;;4.10;99.90;;;;;;5013314;28;20404;-69
2023/11/26 03:26:41;;;;;;;1999.90;999.90;;;4.20;99.90;;;;;;5012950;28;20404;-69
2023/11/26 03:29:07;;;;;;;1999.90;999.90;;;4.20;99.90;;;;;;5013025;28;20951;-69
2023/11/26 03:31:33;;;;;;;1999.90;999.90;;;4.20;99.90;;;;;;5012673;28;20200;-69
2023/11/26 03:33:59;;;;;;;1999.90;999.90;;;4.20;99.90;;;;;;5012838;28;20208;-69
2023/11/26 03:36:25;;;;;;;1999.90;999.90;;;4.20;99.90;;;;;;5012722;28;20908;-69
2023/11/26 03:38:51;;;;;;;1999.90;999.90;;;4.20;99.90;;;;;;5012815;28;20408;-69
2023/11/26 03:41:17;;;;;;;1999.90;999.90;;;4.10;99.90;;;;;;5012668;28;20201;-69
2023/11/26 03:43:42;;;;;;;1999.90;999.90;;;4.20;99.90;;;;;;5012770;28;20177;-69
2023/11/26 03:46:08;;;;;;;1999.90;999.90;;;4.20;99.90;;;;;;5012286;28;20176;-69
2023/11/26 03:48:34;;;;;;;1999.90;999.90;;;4.20;99.90;;;;;;5012584;28;20230;-69
2023/11/26 03:51:00;;;;;;;1999.90;999.90;;;4.20;99.90;;;;;;5011862;28;20566;-69
2023/11/26 03:53:26;;;;;;;1999.90;999.90;;;4.20;99.90;;;;;;5012633;28;20196;-69
2023/11/26 03:55:51;;;;;;;1999.90;999.90;;;4.20;99.90;;;;;;5012433;28;21034;-69
2023/11/26 03:58:17;;;;;;;1999.90;999.90;;;4.30;99.90;;;;;;5012671;28;20205;-69
2023/11/26 04:00:42;;;;;;;1999.90;999.90;;;4.20;99.90;;;;;;5012338;28;20194;-69
2023/11/26 04:03:08;;;;;;;1999.90;999.90;;;4.30;99.90;;;;;;5012507;28;20169;-69
2023/11/26 04:05:34;;;;;;;1999.90;999.90;;;4.30;99.90;;;;;;5012450;28;20219;-69
2023/11/26 04:07:59;;;;;;;1999.90;999.90;;;4.30;99.90;;;;;;5012442;28;20710;-69
2023/11/26 04:10:25;;;;;;;1999.90;999.90;;;4.30;99.90;;;;;;5012403;28;20195;-69
2023/11/26 04:12:50;;;;;;;1999.90;999.90;;;4.30;99.90;;;;;;5012198;28;20258;-69
2023/11/26 04:15:22;;;;;;;1999.90;999.90;;;4.30;99.90;;;;;;5012117;28;20248;-69
2023/11/26 04:17:48;;;;;;;1999.90;999.90;;;4.00;99.90;;;;;;5012542;28;20595;-69
2023/11/26 04:20:14;;;;;;;1999.90;999.90;;;4.30;99.90;;;;;;5012200;28;20396;-69
2023/11/26 04:22:39;;;;;;;1999.90;999.90;;;4.30;99.90;;;;;;5012188;28;20490;-69
2023/11/26 04:25:05;;;;;;;1999.90;999.90;;;4.40;99.90;;;;;;5012216;28;20165;-69
2023/11/26 04:27:31;;;;;;;1999.90;999.90;;;4.40;99.90;;;;;;5011996;28;20546;-69
2023/11/26 04:29:57;;;;;;;1999.90;999.90;;;4.30;99.90;;;;;;5012003;28;20416;-69
2023/11/26 04:32:23;;;;;;;1999.90;999.90;;;4.40;99.90;;;;;;5011997;28;20474;-69
2023/11/26 04:34:49;;;;;;;1999.90;999.90;;;4.40;99.90;;;;;;5012158;28;20411;-68
2023/11/26 04:37:15;;;;;;;1999.90;999.90;;;4.40;99.90;;;;;;5011919;28;20645;-69
2023/11/26 04:39:41;;;;;;;1999.90;999.90;;;4.50;99.90;;;;;;5012148;28;20176;-69
2023/11/26 04:42:07;;;;;;;1999.90;999.90;;;4.50;99.90;;;;;;5012093;28;20259;-69
2023/11/26 04:44:32;;;;;;;1999.90;999.90;;;4.50;99.90;;;;;;5012127;28;20908;-69
2023/11/26 04:46:59;;;;;;;1999.90;999.90;;;4.50;99.90;;;;;;5011783;28;20411;-69
2023/11/26 04:49:24;;;;;;;1999.90;999.90;;;4.60;99.90;;;;;;5011966;28;20169;-69
2023/11/26 04:51:51;;;;;;;1999.90;999.90;;;4.60;99.90;;;;;;5011761;28;20428;-69
2023/11/26 04:54:16;;;;;;;1999.90;999.90;;;4.60;99.90;;;;;;5012011;28;20224;-69
2023/11/26 04:56:42;;;;;;;1999.90;999.90;;;4.60;99.90;;;;;;5011707;28;20404;-69
2023/11/26 04:59:09;;;;;;;1999.90;999.90;;;4.70;99.90;;;;;;5011797;28;20592;-69
2023/11/26 05:01:38;;;;;;;1999.90;999.90;;;4.70;99.90;;;;;;5013762;28;20920;-69
2023/11/26 05:04:06;;;;;;;1999.90;999.90;;;4.80;99.90;;;;;;5015656;28;20511;-69
2023/11/26 05:06:31;;;;;;;1999.90;999.90;;;4.80;99.90;;;;;;5015465;28;20923;-69
2023/11/26 05:08:57;;;;;;;1999.90;999.90;;;4.80;99.90;;;;;;5015679;28;20407;-69
2023/11/26 05:11:23;;;;;;;1999.90;999.90;;;4.80;99.90;;;;;;5015482;28;20519;-69
2023/11/26 05:13:51;;;;;;;1999.90;999.90;;;4.80;99.90;;;;;;5015468;28;20211;-69
2023/11/26 05:16:17;;;;;;;1999.90;999.90;;;4.70;99.90;;;;;;5015405;28;20169;-69
2023/11/26 05:18:43;;;;;;;1999.90;999.90;;;4.80;99.90;;;;;;5015625;28;20437;-69
2023/11/26 05:21:09;;;;;;;1999.90;999.90;;;4.80;99.90;;;;;;5014320;28;20985;-69
2023/11/26 05:23:34;;;;;;;1999.90;999.90;;;4.80;99.90;;;;;;5015285;28;20181;-69
2023/11/26 05:26:02;;;;;;;1999.90;999.90;;;4.90;99.90;;;;;;5015077;28;20184;-69
2023/11/26 05:28:28;;;;;;;1999.90;999.90;;;4.90;99.90;;;;;;5015547;28;20550;-69
2023/11/26 05:30:53;;;;;;;1999.90;999.90;;;4.90;99.90;;;;;;5015222;28;20445;-69
2023/11/26 05:33:19;;;;;;;1999.90;999.90;;;4.90;99.90;;;;;;5015001;28;20208;-69
2023/11/26 05:35:44;;;;;;;1999.90;999.90;;;4.90;99.90;;;;;;5015012;28;20253;-69
2023/11/26 05:38:10;;;;;;;1999.90;999.90;;;4.90;99.90;;;;;;5015203;28;20177;-69
2023/11/26 05:40:35;;;;;;;1999.90;999.90;;;5.00;99.90;;;;;;5014947;28;20173;-69
2023/11/26 05:43:02;;;;;;;1999.90;999.90;;;5.00;99.90;;;;;;5014934;28;20231;-69
2023/11/26 05:45:28;;;;;;;1999.90;999.90;;;5.00;99.90;;;;;;5014771;28;20188;-69
2023/11/26 05:47:55;;;;;;;1999.90;999.90;;;5.10;99.90;;;;;;5015049;28;20423;-69
2023/11/26 05:50:20;;;;;;;1999.90;999.90;;;5.00;99.90;;;;;;5014865;28;20416;-69
2023/11/26 05:52:46;;;;;;;1999.90;999.90;;;5.10;99.90;;;;;;5014686;28;21030;-68
2023/11/26 05:55:12;;;;;;;1999.90;999.90;;;5.10;99.90;;;;;;5014523;28;20548;-69
2023/11/26 05:57:37;;;;;;;1999.90;999.90;;;5.10;99.90;;;;;;5014979;28;20215;-69
2023/11/26 06:00:04;;;;;;;1999.90;999.90;;;5.10;99.90;;;;;;5014703;28;20176;-69
2023/11/26 06:02:30;;;;;;;1999.90;999.90;;;5.10;99.90;;;;;;5014787;28;20203;-69
2023/11/26 06:04:56;;;;;;;1999.90;999.90;;;5.10;99.90;;;;;;5014661;28;20403;-69
2023/11/26 06:07:22;;;;;;;1999.90;999.90;;;5.00;99.90;;;;;;5014490;28;20623;-68
2023/11/26 06:09:47;;;;;;;1999.90;999.90;;;5.00;99.90;;;;;;5014534;28;20436;-69
2023/11/26 06:12:13;;;;;;;1999.90;999.90;;;5.00;99.90;;;;;;5013488;28;20689;-69
2023/11/26 06:14:38;;;;;;;1999.90;999.90;;;5.00;99.90;;;;;;5014337;28;20256;-69
2023/11/26 06:17:05;;;;;;;1999.90;999.90;;;5.00;99.90;;;;;;5014220;28;20182;-69
2023/11/26 06:19:31;;;;;;;1999.90;999.90;;;5.00;99.90;;;;;;5014491;28;20411;-69
2023/11/26 06:21:56;;;;;;;1999.90;999.90;;;5.00;99.90;;;;;;5014199;28;20424;-69
2023/11/26 06:24:23;;;;;;;1999.90;999.90;;;5.00;99.90;;;;;;5014255;28;20177;-69
2023/11/26 06:26:48;;;;;;;1999.90;999.90;;;5.00;99.90;;;;;;5014050;28;20620;-68
2023/11/26 06:29:14;;;;;;;1999.90;999.90;;;5.00;99.90;;;;;;5014357;28;20474;-68
2023/11/26 06:31:40;;;;;;;1999.90;999.90;;;5.00;99.90;;;;;;5013984;28;20232;-69
2023/11/26 06:34:06;;;;;;;1999.90;999.90;;;5.10;99.90;;;;;;5014137;28;20200;-69
2023/11/26 06:36:32;;;;;;;1999.90;999.90;;;5.10;99.90;;;;;;5013871;28;20477;-68
2023/11/26 06:38:58;;;;;;;1999.90;999.90;;;5.10;99.90;;;;;;5014004;28;20495;-69
2023/11/26 06:41:28;;;;;;;1999.90;999.90;;;5.10;99.90;;;;;;5013816;28;20197;-69
2023/11/26 06:43:55;;;;;;;1999.90;999.90;;;5.10;99.90;;;;;;5013906;28;20184;-69
2023/11/26 06:46:22;;;;;;;1999.90;999.90;;;5.20;99.90;;;;;;5013668;28;20463;-69
2023/11/26 06:48:48;;;;;;;1999.90;999.90;;;5.10;99.90;;;;;;5013862;28;20419;-69
2023/11/26 06:51:14;;;;;;;1999.90;999.90;;;5.20;99.90;;;;;;5013731;28;21080;-69
2023/11/26 06:53:40;;;;;;;1999.90;999.90;;;5.20;99.90;;;;;;5013628;28;20451;-69
2023/11/26 06:56:07;;;;;;;1999.90;999.90;;;5.20;99.90;;;;;;5013485;28;20260;-69
2023/11/26 06:58:40;;;;;;;1999.90;999.90;;;5.20;99.90;;;;;;5013551;28;20188;-69
2023/11/26 07:01:06;;;;;;;1999.90;999.90;;;5.20;99.90;;;;;;5013543;28;20803;-69
2023/11/26 07:03:33;;;;;;;1999.90;999.90;;;5.20;99.90;;;;;;5013560;28;20415;-69
2023/11/26 07:06:04;;;;;;;1999.90;999.90;;;5.20;99.90;;;;;;5013388;28;20764;-69
2023/11/26 07:08:31;;;;;;;1999.90;999.90;;;5.20;99.90;;;;;;5013650;28;20415;-69
2023/11/26 07:10:56;;;;;;;1999.90;999.90;;;5.30;99.90;;;;;;5013287;28;20431;-69
2023/11/26 07:13:22;;;;;;;1999.90;999.90;;;5.30;99.90;;;;;;5013294;28;21018;-69
2023/11/26 07:15:48;;;;;;;1999.90;999.90;;;5.30;99.90;;;;;;5013178;28;20183;-69
2023/11/26 07:18:14;;;;;;;1999.90;999.90;;;5.20;99.90;;;;;;5013327;28;20235;-69
2023/11/26 07:20:40;;;;;;;1999.90;999.90;;;5.20;99.90;;;;;;5013107;28;20692;-69
2023/11/26 07:23:06;;;;;;;1999.90;999.90;;;5.30;99.90;;;;;;5013399;28;20788;-70
2023/11/26 07:25:32;;;;;;;1999.90;999.90;;;5.30;99.90;;;;;;5012911;28;20423;-69
2023/11/26 07:27:59;;;;;;;1999.90;999.90;;;5.30;99.90;;;;;;5013145;28;20784;-69
2023/11/26 07:30:25;;;;;;;1999.90;999.90;;;5.40;99.90;;;;;;5012200;28;20467;-69
2023/11/26 07:32:50;;;;;;;1999.90;999.90;;;5.40;99.90;;;;;;5012732;28;20495;-70
2023/11/26 07:35:16;;;;;;;1999.90;999.90;;;5.40;99.90;;;;;;5012670;28;20660;-69
2023/11/26 07:37:42;;;;;;;1999.90;999.90;;;5.40;99.90;;;;;;5013023;28;20173;-69
2023/11/26 07:40:13;;;;;;;1999.90;999.90;;;5.40;99.90;;;;;;5012921;28;20168;-69
2023/11/26 07:42:40;;;;;;;1999.90;999.90;;;5.50;99.90;;;;;;5012951;28;20208;-69
2023/11/26 07:45:06;;;;;;;1999.90;999.90;;;5.50;99.90;;;;;;5012862;28;20463;-69
2023/11/26 07:47:32;;;;;;;1999.90;999.90;;;5.60;99.90;;;;;;5012547;28;20474;-68
2023/11/26 07:49:58;;;;;;;1999.90;999.90;;;5.60;99.90;;;;;;5012746;28;20414;-68
2023/11/26 07:52:23;;;;;;;1999.90;999.90;;;5.60;99.90;;;;;;5012585;28;20228;-69
2023/11/26 07:54:49;;;;;;;1999.90;999.90;;;5.60;99.90;;;;;;5012661;28;20176;-69
2023/11/26 07:57:15;;;;;;;1999.90;999.90;;;6.00;99.90;;;;;;5012454;28;20208;-69
2023/11/26 07:59:43;;;;;;;1999.90;999.90;;;5.70;99.90;;;;;;5012724;28;20408;-69
2023/11/26 08:02:10;;;;;;;1999.90;999.90;;;5.70;99.90;;;;;;5012467;28;20848;-69
2023/11/26 08:04:37;;;;;;;1999.90;999.90;;;5.80;99.90;;;;;;5012783;28;20482;-69
2023/11/26 08:07:03;;;;;;;1999.90;999.90;;;5.80;99.90;;;;;;5012576;28;20953;-69
2023/11/26 08:09:34;;;;;;;1999.90;999.90;;;5.80;99.90;;;;;;5012594;28;20435;-69
2023/11/26 08:12:02;;;;;;;1999.90;999.90;;;5.80;99.90;;;;;;5012376;28;20431;-69
2023/11/26 08:14:27;;;;;;;1999.90;999.90;;;5.90;99.90;;;;;;5012514;28;20400;-69
2023/11/26 08:16:57;;;;;;;1999.90;999.90;;;5.90;99.90;;;;;;5012086;28;20412;-70
2023/11/26 08:19:24;;;;;;;1999.90;999.90;;;6.00;99.90;;;;;;5012552;28;20176;-69
2023/11/26 08:21:54;;;;;;;1999.90;999.90;;;6.00;99.90;;;;;;5012201;28;20503;-69
2023/11/26 08:24:20;;;;;;;1999.90;999.90;;;6.10;99.90;;;;;;5011710;28;20428;-69
2023/11/26 08:26:46;;;;;;;1999.90;999.90;;;6.10;99.90;;;;;;5011808;28;20935;-69
2023/11/26 08:29:13;;;;;;;1999.90;999.90;;;6.20;99.90;;;;;;5011523;28;20181;-69
2023/11/26 08:31:42;;;;;;;1999.90;999.90;;;6.20;99.90;;;;;;5003520;28;20431;-69
2023/11/26 08:34:11;;;;;;;1999.90;999.90;;;6.30;99.90;;;;;;5011908;28;20459;-69
2023/11/26 08:36:42;;;;;;;1999.90;999.90;;;6.20;99.90;;;;;;5011346;28;20503;-69
2023/11/26 08:39:13;;;;;;;1999.90;999.90;;;6.30;99.90;;;;;;5011899;28;20490;-69
2023/11/26 08:41:39;;;;;;;1999.90;999.90;;;6.40;99.90;;;;;;5011783;28;20943;-69
2023/11/26 08:44:05;;;;;;;1999.90;999.90;;;6.30;99.90;;;;;;5011842;28;20466;-69
2023/11/26 08:46:34;;;;;;;1999.90;999.90;;;6.40;99.90;;;;;;5011957;28;20177;-69
2023/11/26 08:48:59;;;;;;;1999.90;999.90;;;6.50;99.90;;;;;;5011000;28;20487;-69
2023/11/26 08:51:25;;;;;;;1999.90;999.90;;;6.60;99.90;;;;;;5011625;28;20805;-69
2023/11/26 08:53:51;;;;;;;1999.90;999.90;;;6.50;99.90;;;;;;5011542;28;20574;-69
2023/11/26 08:56:18;;;;;;;1999.90;999.90;;;6.50;99.90;;;;;;5011482;28;20177;-69
2023/11/26 08:58:43;;;;;;;1999.90;999.90;;;6.60;99.90;;;;;;5011646;28;20444;-69
2023/11/26 09:01:10;;;;;;;1999.90;999.90;;;6.60;99.90;;;;;;5011532;28;20503;-69
2023/11/26 09:03:36;;;;;;;1999.90;999.90;;;6.50;99.90;;;;;;5011606;28;20177;-69
2023/11/26 09:06:02;;;;;;;1999.90;999.90;;;6.60;99.90;;;;;;5011527;28;20930;-69
2023/11/26 09:08:28;;;;;;;1999.90;999.90;;;6.60;99.90;;;;;;5011633;28;20408;-69
2023/11/26 09:10:56;;;;;;;1999.90;999.90;;;6.60;99.90;;;;;;5011530;28;20470;-69
2023/11/26 09:13:22;;;;;;;1999.90;999.90;;;6.50;99.90;;;;;;5011451;28;20247;-69
2023/11/26 09:15:48;;;;;;;1999.90;999.90;;;6.60;99.90;;;;;;5011426;28;20415;-69
2023/11/26 09:18:13;;;;;;;1999.90;999.90;;;6.60;99.90;;;;;;5011732;28;20404;-69
2023/11/26 09:20:41;;;;;;;1999.90;999.90;;;6.60;99.90;;;;;;5011581;28;20256;-69
2023/11/26 09:23:07;;;;;;;1999.90;999.90;;;6.60;99.90;;;;;;5011679;28;20780;-69
2023/11/26 09:25:33;;;;;;;1999.90;999.90;;;6.60;99.90;;;;;;5011482;28;20446;-69
2023/11/26 09:27:58;;;;;;;1999.90;999.90;;;6.60;99.90;;;;;;5011590;28;20832;-69
2023/11/26 09:30:24;;;;;;;1999.90;999.90;;;6.60;99.90;;;;;;5011547;28;20248;-69
2023/11/26 09:32:49;;;;;;;1999.90;999.90;;;6.70;99.90;;;;;;5011390;28;20212;-69
2023/11/26 09:35:16;;;;;;;1999.90;999.90;;;6.70;99.90;;;;;;5011351;28;20177;-69
2023/11/26 09:37:41;;;;;;;1999.90;999.90;;;6.70;99.90;;;;;;5011464;28;20185;-69
2023/11/26 09:40:08;;;;;;;1999.90;999.90;;;6.80;99.90;;;;;;5011446;28;20404;-69
2023/11/26 09:42:34;;;;;;;1999.90;999.90;;;6.70;99.90;;;;;;5011388;28;20267;-69
2023/11/26 09:45:00;;;;;;;1999.90;999.90;;;6.80;99.90;;;;;;5011525;28;20483;-69
2023/11/26 09:47:26;;;;;;;1999.90;999.90;;;6.80;99.90;;;;;;5011496;28;20436;-69
2023/11/26 09:49:52;;;;;;;1999.90;999.90;;;6.90;99.90;;;;;;5015115;28;20248;-69
2023/11/26 09:52:20;;;;;;;1999.90;999.90;;;6.90;99.90;;;;;;5014680;28;20452;-69
2023/11/26 09:54:45;;;;;;;1999.90;999.90;;;7.00;99.90;;;;;;5014546;28;20494;-69
2023/11/26 09:57:11;;;;;;;1999.90;999.90;;;7.00;99.90;;;;;;5014395;28;20428;-69
2023/11/26 09:59:37;;;;;;;1999.90;999.90;;;7.00;99.90;;;;;;5014857;28;20173;-69
2023/11/26 10:02:07;;;;;;;1999.90;999.90;;;7.10;99.90;;;;;;5014562;28;20935;-69
2023/11/26 10:04:48;;;;;;;1999.90;999.90;;;7.10;99.90;;;;;;5014709;28;20497;-69
2023/11/26 10:07:14;;;;;;;1999.90;999.90;;;7.20;99.90;;;;;;5014334;28;20515;-69
2023/11/26 10:09:40;;;;;;;1999.90;999.90;;;7.30;99.90;;;;;;5014753;28;20435;-69
2023/11/26 10:12:06;;;;;;;1999.90;999.90;;;7.30;99.90;;;;;;5014253;28;20963;-69
2023/11/26 10:14:32;;;;;;;1999.90;999.90;;;7.20;99.90;;;;;;5014554;28;20548;-69
2023/11/26 10:17:11;;;;;;;1999.90;999.90;;;7.20;99.90;;;;;;5014306;28;20419;-69
2023/11/26 10:19:37;;;;;;;1999.90;999.90;;;7.20;99.90;;;;;;5014475;28;20534;-69
2023/11/26 10:22:03;;;;;;;1999.90;999.90;;;7.20;99.90;;;;;;5010962;28;20523;-68
2023/11/26 10:24:30;;;;;;;1999.90;999.90;;;8.10;99.90;;;;;;5011188;28;20561;-68
2023/11/26 10:26:59;;;;;;;1999.90;999.90;;;7.20;99.90;;;;;;5006424;28;20173;-68
2023/11/26 10:29:29;;;;;;;1999.90;999.90;;;7.30;99.90;;;;;;5009315;28;20550;-69
2023/11/26 10:32:01;;;;;;;1999.90;999.90;;;7.30;99.90;;;;;;5010051;28;20831;-68
2023/11/26 10:34:31;;;;;;;1999.90;999.90;;;7.30;99.90;;;;;;5009731;28;20473;-69
2023/11/26 10:36:57;;;;;;;1999.90;999.90;;;7.40;99.90;;;;;;5009278;28;20412;-68
2023/11/26 10:39:23;;;;;;;1999.90;999.90;;;7.30;99.90;;;;;;5009250;28;20411;-68
2023/11/26 10:41:50;;;;;;;1999.90;999.90;;;7.40;99.90;;;;;;5009850;28;20428;-68
2023/11/26 10:44:17;;;;;;;1999.90;999.90;;;7.10;99.90;;;;;;5009319;28;20416;-69
2023/11/26 10:46:48;;;;;;;1999.90;999.90;;;7.40;99.90;;;;;;5007755;28;20431;-69
2023/11/26 10:49:55;;;;;;;1999.90;999.90;;;7.50;99.90;;;;;;5010029;28;20770;-69
2023/11/26 10:52:37;;;;;;;1999.90;999.90;;;7.50;99.90;;;;;;4980706;28;21007;-68
2023/11/26 10:55:16;;;;;;;1999.90;999.90;;;7.60;99.90;;;;;;5009832;28;20515;-69
2023/11/26 10:57:43;;;;;;;1999.90;999.90;;;7.60;99.90;;;;;;5009344;28;20772;-68
2023/11/26 11:00:13;;;;;;;1999.90;999.90;;;7.60;99.90;;;;;;5009344;28;20961;-68
2023/11/26 11:02:44;;;;;;;1999.90;999.90;;;7.60;99.90;;;;;;5008836;28;20456;-69
2023/11/26 11:05:11;;;;;;;1999.90;999.90;;;7.60;99.90;;;;;;5008856;28;20425;-69
2023/11/26 11:07:38;;;;;;;1999.90;999.90;;;7.60;99.90;;;;;;5008942;28;20425;-69
2023/11/26 11:10:07;;;;;;;1999.90;999.90;;;7.60;99.90;;;;;;5009183;28;20481;-69
2023/11/26 11:13:06;;;;;;;1999.90;999.90;;;7.60;99.90;;;;;;5008537;28;20484;-69
2023/11/26 11:15:32;;;;;;;1999.90;999.90;;;7.60;99.90;;;;;;5005360;28;20470;-69
2023/11/26 11:17:58;;;;;;;1999.90;999.90;;;7.60;99.90;;;;;;5008948;28;20416;-69
2023/11/26 11:21:05;;;;;;;1999.90;999.90;;;7.60;99.90;;;;;;5008532;28;20420;-69
2023/11/26 11:23:39;;;;;;;1999.90;999.90;;;7.60;99.90;;;;;;5008532;28;20267;-69
2023/11/26 11:26:09;;;;;;;1999.90;999.90;;;7.60;99.90;;;;;;5008056;28;20419;-68
2023/11/26 11:28:50;;;;;;;1999.90;999.90;;;7.50;99.90;;;;;;5008416;28;20474;-67
2023/11/26 11:31:18;;;;;;;1999.90;999.90;;;7.50;99.90;;;;;;5008275;28;20978;-69
2023/11/26 11:33:56;;;;;;;1999.90;999.90;;;7.20;99.90;;;;;;5008709;28;20495;-68
2023/11/26 11:36:40;;;;;;;1999.90;999.90;;;7.40;99.90;;;;;;5008535;28;20511;-68
2023/11/26 11:39:10;;;;;;;1999.90;999.90;;;7.30;99.90;;;;;;5007351;28;20404;-68
2023/11/26 11:41:58;;;;;;;1999.90;999.90;;;7.40;99.90;;;;;;5007904;28;20846;-68
2023/11/26 11:44:31;;;;;;;1999.90;999.90;;;7.40;99.90;;;;;;5008095;28;20427;-68
2023/11/26 11:46:58;;;;;;;1999.90;999.90;;;;;;;;;;5007599;28;20931;-69
2023/11/26 11:49:28;;;;;;;1999.90;999.90;;;7.30;99.90;;;;;;5008458;28;20424;-68
2023/11/26 11:51:54;;;;;;;1999.90;999.90;;;7.40;99.90;;;;;;5008647;28;20771;-69
2023/11/26 11:54:54;;;;;;;1999.90;999.90;;;7.40;99.90;;;;;;5007759;28;20451;-69
2023/11/26 11:57:24;;;;;;;1999.90;999.90;;;7.50;99.90;;;;;;5007356;28;20412;-69
2023/11/26 11:59:50;;;;;;;1999.90;999.90;;;7.50;99.90;;;;;;5007928;28;20423;-69
2023/11/26 12:02:17;;;;;;;1999.90;999.90;;;7.50;99.90;;;;;;5008170;28;20428;-69
2023/11/26 12:04:46;;;;;;;1999.90;999.90;;;7.50;99.90;;;;;;5007695;28;20919;-69
2023/11/26 12:07:14;;;;;;;1999.90;999.90;;;7.50;99.90;;;;;;5007833;28;20955;-68
2023/11/26 12:09:41;;;;;;;1999.90;999.90;;;7.50;99.90;;;;;;5008120;28;20842;-69
2023/11/26 12:12:08;;;;;;;1999.90;999.90;;;7.50;99.90;;;;;;5007318;28;20534;-69